Terminal Aerodrome Forecast
Issued by NWS

Home | Current Version | Previous Version | Text Only | Print | Product List | Glossary On
Versions: 1 2 3 4 5 6 7 8 9 10 11 12 13
009
FTUS46 KSEW 070520
TAFBLI
TAF
KBLI 070520Z 0706/0806 17005KT P6SM SCT120
     FM071600 04004KT P6SM VCSH SCT040 OVC060
     FM071900 VRB03KT P6SM VCSH OVC030
     FM072300 35004KT P6SM OVC040
     FM080300 35003KT P6SM SCT040 OVC100=

USA.gov is the U.S. government's official web portal to all federal, state and local government web resources and services.